Historie AUP a zpráv METAR Praha-Ruzyně z 12:00 UTC

Datum: 17-04-2018 / Vyber datum:
LKPR 171200Z 03008KT 340V050 9999 FEW033 17/09 Q1026 NOSIG
Prostor Spodní hranice Horní hranice Od Do
TRA56 1000FT/AGL F125 07:00 20:00
TRA57 3000FT/AMSL F125 07:00 20:00
TRA6 GND 1000FT/AGL 06:00 13:00
TRA61 GND 3000FT/AMSL 14:00 17:57
TRA62 3000FT/AMSL F245 07:00 14:00
TRA71 GND 1000FT/AGL 07:00 17:57
TRA73 GND 1000FT/AGL 07:00 17:57
TRA76 1000FT/AGL F075 14:00 21:00
TRA77 1000FT/AGL F245 14:00 21:00
TRA78 1000FT/AGL F245 14:00 21:00
TRA79 F075 F245 14:00 21:00
TSA1 GND F165 14:00 16:00
TSA2A GND F115 06:00 10:10
TSA2B GND F115 07:00 14:40
TSA20 300FT/AGL 1000FT/AGL 14:00 17:57
TSA26 300FT/AGL 1000FT/AGL 14:00 17:57
TSA27 300FT/AGL 1000FT/AGL 14:00 17:57
TSA3A GND F285 07:00 16:30
TSA5B GND F135 07:00 14:00